Lemasters, Pennsylvania
Current Conditions -  °F | °C
As of 8:19 AM on Wednesday 22 Oct 2014 (Local Time) from KHGR Reporting Station
Overcast Overcast  
Wind Chill: 53°   Ceiling: 3100
Heat Index: 53°   Visibility: 10mi
Dew Point: 46°   Wind: 13mph
Humidity: 77%   Direction: 340°NNW
Pressure: 29.97"   Gusts: NA
Location:  39.86°N, 77.86°W
Report Text: KHGR 221219Z 34011KT 10SM BKN031 OVC090 12/08 A2997 RMK AO2 T01170078
Loading
Personal Weather Stations






























Interactive Weather Map
Tropical Storm Tracking
New forecast layout! Learn more

10-Day Weather Forecast

Advertisements
Track Severe Weather on mobile